sensor_id;sensor_type;location;lat;lon;timestamp;P1;durP1;ratioP1;P2;durP2;ratioP2
65033;SDS011;51601;51.356;12.458;2023-03-20T00:03:09;629.67;;;389.47;;
65033;SDS011;51601;51.356;12.458;2023-03-20T00:07:28;625.50;;;381.88;;
65033;SDS011;51601;51.356;12.458;2023-03-20T00:11:47;630.00;;;384.40;;
65033;SDS011;51601;51.356;12.458;2023-03-20T00:16:08;606.70;;;367.43;;
65033;SDS011;51601;51.356;12.458;2023-03-20T00:20:30;597.60;;;354.50;;
65033;SDS011;51601;51.356;12.458;2023-03-20T00:24:50;605.97;;;369.65;;
65033;SDS011;51601;51.356;12.458;2023-03-20T00:29:13;605.00;;;367.47;;
65033;SDS011;51601;51.356;12.458;2023-03-20T00:33:39;614.33;;;366.83;;
65033;SDS011;51601;51.356;12.458;2023-03-20T00:38:01;660.42;;;401.63;;
65033;SDS011;51601;51.356;12.458;2023-03-20T00:42:23;668.78;;;417.98;;
65033;SDS011;51601;51.356;12.458;2023-03-20T00:46:41;678.27;;;430.23;;
65033;SDS011;51601;51.356;12.458;2023-03-20T00:51:03;685.20;;;436.25;;
65033;SDS011;51601;51.356;12.458;2023-03-20T00:55:23;717.78;;;471.35;;
65033;SDS011;51601;51.356;12.458;2023-03-20T00:59:46;746.73;;;501.53;;
65033;SDS011;51601;51.356;12.458;2023-03-20T01:04:10;755.28;;;520.38;;
65033;SDS011;51601;51.356;12.458;2023-03-20T01:08:30;741.80;;;499.23;;
65033;SDS011;51601;51.356;12.458;2023-03-20T01:12:50;753.63;;;510.93;;
65033;SDS011;51601;51.356;12.458;2023-03-20T01:17:09;777.63;;;548.70;;
65033;SDS011;51601;51.356;12.458;2023-03-20T01:21:34;824.05;;;620.35;;
65033;SDS011;51601;51.356;12.458;2023-03-20T01:25:52;613.65;;;439.45;;
65033;SDS011;51601;51.356;12.458;2023-03-20T01:30:16;542.23;;;355.73;;
65033;SDS011;51601;51.356;12.458;2023-03-20T01:34:37;553.47;;;373.67;;
65033;SDS011;51601;51.356;12.458;2023-03-20T01:38:55;604.88;;;399.75;;
65033;SDS011;51601;51.356;12.458;2023-03-20T01:43:17;558.47;;;348.07;;
65033;SDS011;51601;51.356;12.458;2023-03-20T01:47:39;527.42;;;324.67;;
65033;SDS011;51601;51.356;12.458;2023-03-20T01:51:58;527.60;;;323.75;;
65033;SDS011;51601;51.356;12.458;2023-03-20T01:56:19;548.70;;;339.30;;
65033;SDS011;51601;51.356;12.458;2023-03-20T02:00:41;539.45;;;335.90;;
65033;SDS011;51601;51.356;12.458;2023-03-20T02:05:07;497.95;;;296.38;;
65033;SDS011;51601;51.356;12.458;2023-03-20T02:09:29;492.35;;;294.63;;
65033;SDS011;51601;51.356;12.458;2023-03-20T02:13:50;499.83;;;293.30;;
65033;SDS011;51601;51.356;12.458;2023-03-20T02:18:14;505.90;;;298.73;;
65033;SDS011;51601;51.356;12.458;2023-03-20T02:27:29;456.87;;;270.17;;
65033;SDS011;51601;51.356;12.458;2023-03-20T02:32:06;441.02;;;265.80;;
65033;SDS011;51601;51.356;12.458;2023-03-20T02:37:15;456.23;;;273.85;;
65033;SDS011;51601;51.356;12.458;2023-03-20T02:41:42;543.73;;;327.87;;
65033;SDS011;51601;51.356;12.458;2023-03-20T02:46:07;553.17;;;339.17;;
65033;SDS011;51601;51.356;12.458;2023-03-20T02:50:34;525.25;;;317.38;;
65033;SDS011;51601;51.356;12.458;2023-03-20T02:55:04;482.75;;;291.65;;
65033;SDS011;51601;51.356;12.458;2023-03-20T02:59:31;476.67;;;280.17;;
65033;SDS011;51601;51.356;12.458;2023-03-20T03:03:59;456.98;;;266.73;;
65033;SDS011;51601;51.356;12.458;2023-03-20T03:08:19;468.45;;;276.50;;
65033;SDS011;51601;51.356;12.458;2023-03-20T03:12:42;485.43;;;285.37;;
65033;SDS011;51601;51.356;12.458;2023-03-20T03:17:04;472.80;;;275.55;;
65033;SDS011;51601;51.356;12.458;2023-03-20T03:21:25;484.15;;;285.83;;
65033;SDS011;51601;51.356;12.458;2023-03-20T03:25:46;520.40;;;299.53;;
65033;SDS011;51601;51.356;12.458;2023-03-20T03:30:11;490.88;;;282.58;;
65033;SDS011;51601;51.356;12.458;2023-03-20T03:34:32;489.67;;;280.77;;
65033;SDS011;51601;51.356;12.458;2023-03-20T03:39:27;494.90;;;287.30;;
65033;SDS011;51601;51.356;12.458;2023-03-20T03:44:30;482.23;;;278.37;;
65033;SDS011;51601;51.356;12.458;2023-03-20T03:48:50;498.05;;;289.73;;
65033;SDS011;51601;51.356;12.458;2023-03-20T03:53:12;507.00;;;299.48;;
65033;SDS011;51601;51.356;12.458;2023-03-20T03:57:34;505.63;;;296.63;;
65033;SDS011;51601;51.356;12.458;2023-03-20T04:02:00;501.58;;;299.52;;
65033;SDS011;51601;51.356;12.458;2023-03-20T04:06:23;505.30;;;304.13;;
65033;SDS011;51601;51.356;12.458;2023-03-20T04:10:42;511.27;;;310.83;;
65033;SDS011;51601;51.356;12.458;2023-03-20T04:15:00;512.40;;;314.23;;
65033;SDS011;51601;51.356;12.458;2023-03-20T04:19:21;516.30;;;317.00;;
65033;SDS011;51601;51.356;12.458;2023-03-20T04:23:41;521.55;;;322.63;;
65033;SDS011;51601;51.356;12.458;2023-03-20T04:28:01;514.37;;;316.50;;
65033;SDS011;51601;51.356;12.458;2023-03-20T04:32:37;533.72;;;327.55;;
65033;SDS011;51601;51.356;12.458;2023-03-20T04:37:11;530.28;;;328.40;;
65033;SDS011;51601;51.356;12.458;2023-03-20T04:41:55;528.03;;;327.87;;
65033;SDS011;51601;51.356;12.458;2023-03-20T04:46:14;536.45;;;335.05;;
65033;SDS011;51601;51.356;12.458;2023-03-20T04:50:32;539.10;;;337.15;;
65033;SDS011;51601;51.356;12.458;2023-03-20T04:54:50;542.70;;;341.43;;
65033;SDS011;51601;51.356;12.458;2023-03-20T04:59:10;546.22;;;343.35;;
65033;SDS011;51601;51.356;12.458;2023-03-20T05:03:30;552.58;;;349.08;;
65033;SDS011;51601;51.356;12.458;2023-03-20T05:07:48;554.00;;;353.60;;
65033;SDS011;51601;51.356;12.458;2023-03-20T05:12:27;559.87;;;357.83;;
65033;SDS011;51601;51.356;12.458;2023-03-20T05:17:11;557.42;;;356.15;;
65033;SDS011;51601;51.356;12.458;2023-03-20T05:21:49;557.88;;;359.15;;
65033;SDS011;51601;51.356;12.458;2023-03-20T05:26:17;563.67;;;363.47;;
65033;SDS011;51601;51.356;12.458;2023-03-20T05:30:56;564.55;;;364.48;;
65033;SDS011;51601;51.356;12.458;2023-03-20T05:35:37;569.25;;;368.65;;
65033;SDS011;51601;51.356;12.458;2023-03-20T05:40:15;572.47;;;370.50;;
65033;SDS011;51601;51.356;12.458;2023-03-20T05:44:52;569.20;;;371.63;;
65033;SDS011;51601;51.356;12.458;2023-03-20T05:49:13;572.30;;;369.73;;
65033;SDS011;51601;51.356;12.458;2023-03-20T05:53:51;569.50;;;369.67;;
65033;SDS011;51601;51.356;12.458;2023-03-20T05:58:23;569.73;;;369.03;;
65033;SDS011;51601;51.356;12.458;2023-03-20T06:03:02;575.75;;;369.52;;
65033;SDS011;51601;51.356;12.458;2023-03-20T06:07:39;574.35;;;366.25;;
65033;SDS011;51601;51.356;12.458;2023-03-20T06:12:02;582.90;;;372.63;;
65033;SDS011;51601;51.356;12.458;2023-03-20T06:16:21;581.70;;;368.60;;
65033;SDS011;51601;51.356;12.458;2023-03-20T06:20:42;585.33;;;372.35;;
65033;SDS011;51601;51.356;12.458;2023-03-20T06:25:00;588.67;;;371.70;;
65033;SDS011;51601;51.356;12.458;2023-03-20T06:29:26;589.13;;;372.63;;
65033;SDS011;51601;51.356;12.458;2023-03-20T06:33:55;593.88;;;371.65;;
65033;SDS011;51601;51.356;12.458;2023-03-20T06:38:13;596.47;;;375.83;;
65033;SDS011;51601;51.356;12.458;2023-03-20T06:42:34;594.47;;;373.37;;
65033;SDS011;51601;51.356;12.458;2023-03-20T06:46:59;604.50;;;381.42;;
65033;SDS011;51601;51.356;12.458;2023-03-20T06:51:19;605.55;;;385.98;;
65033;SDS011;51601;51.356;12.458;2023-03-20T06:55:41;608.47;;;386.83;;
65033;SDS011;51601;51.356;12.458;2023-03-20T06:59:59;611.55;;;388.08;;
65033;SDS011;51601;51.356;12.458;2023-03-20T07:04:18;607.42;;;387.70;;
65033;SDS011;51601;51.356;12.458;2023-03-20T07:08:41;607.20;;;390.13;;
65033;SDS011;51601;51.356;12.458;2023-03-20T07:12:59;609.75;;;387.95;;
65033;SDS011;51601;51.356;12.458;2023-03-20T07:17:17;603.35;;;384.25;;
65033;SDS011;51601;51.356;12.458;2023-03-20T07:21:36;601.67;;;382.67;;
65033;SDS011;51601;51.356;12.458;2023-03-20T07:25:56;601.87;;;379.80;;
65033;SDS011;51601;51.356;12.458;2023-03-20T07:30:14;485.15;;;301.90;;
65033;SDS011;51601;51.356;12.458;2023-03-20T07:34:35;495.58;;;312.30;;
65033;SDS011;51601;51.356;12.458;2023-03-20T07:38:55;591.13;;;371.43;;
65033;SDS011;51601;51.356;12.458;2023-03-20T07:43:14;617.65;;;388.10;;
65033;SDS011;51601;51.356;12.458;2023-03-20T07:47:57;626.50;;;400.75;;
65033;SDS011;51601;51.356;12.458;2023-03-20T07:52:15;626.43;;;403.60;;
65033;SDS011;51601;51.356;12.458;2023-03-20T07:56:35;618.78;;;392.52;;
65033;SDS011;51601;51.356;12.458;2023-03-20T08:00:55;619.72;;;392.17;;
65033;SDS011;51601;51.356;12.458;2023-03-20T08:05:12;615.95;;;383.13;;
65033;SDS011;51601;51.356;12.458;2023-03-20T08:09:31;618.67;;;380.33;;
65033;SDS011;51601;51.356;12.458;2023-03-20T08:13:50;621.80;;;379.13;;
65033;SDS011;51601;51.356;12.458;2023-03-20T08:18:10;621.10;;;374.25;;
65033;SDS011;51601;51.356;12.458;2023-03-20T08:22:28;623.07;;;375.90;;
65033;SDS011;51601;51.356;12.458;2023-03-20T08:26:46;619.25;;;371.48;;
65033;SDS011;51601;51.356;12.458;2023-03-20T08:31:07;619.28;;;364.92;;
65033;SDS011;51601;51.356;12.458;2023-03-20T08:35:25;616.10;;;362.07;;
65033;SDS011;51601;51.356;12.458;2023-03-20T08:39:49;618.90;;;359.77;;
65033;SDS011;51601;51.356;12.458;2023-03-20T08:44:07;625.20;;;363.88;;
65033;SDS011;51601;51.356;12.458;2023-03-20T08:48:27;626.53;;;362.63;;
65033;SDS011;51601;51.356;12.458;2023-03-20T08:52:46;633.93;;;361.30;;
65033;SDS011;51601;51.356;12.458;2023-03-20T08:57:04;625.78;;;359.02;;
65033;SDS011;51601;51.356;12.458;2023-03-20T09:01:23;623.45;;;356.48;;
65033;SDS011;51601;51.356;12.458;2023-03-20T09:05:57;632.50;;;363.17;;
65033;SDS011;51601;51.356;12.458;2023-03-20T09:10:17;636.55;;;364.00;;
65033;SDS011;51601;51.356;12.458;2023-03-20T09:14:35;631.08;;;363.75;;
65033;SDS011;51601;51.356;12.458;2023-03-20T09:18:53;632.27;;;366.90;;
65033;SDS011;51601;51.356;12.458;2023-03-20T09:23:13;628.33;;;366.50;;
65033;SDS011;51601;51.356;12.458;2023-03-20T09:27:32;629.50;;;368.23;;
65033;SDS011;51601;51.356;12.458;2023-03-20T09:31:51;632.42;;;371.63;;
65033;SDS011;51601;51.356;12.458;2023-03-20T09:36:11;632.30;;;374.27;;
65033;SDS011;51601;51.356;12.458;2023-03-20T09:40:36;624.33;;;372.27;;
65033;SDS011;51601;51.356;12.458;2023-03-20T09:45:08;632.60;;;373.88;;
65033;SDS011;51601;51.356;12.458;2023-03-20T09:49:33;631.43;;;378.27;;
65033;SDS011;51601;51.356;12.458;2023-03-20T09:53:58;630.42;;;374.33;;
65033;SDS011;51601;51.356;12.458;2023-03-20T09:58:24;637.17;;;380.85;;
65033;SDS011;51601;51.356;12.458;2023-03-20T10:02:47;629.13;;;376.50;;
65033;SDS011;51601;51.356;12.458;2023-03-20T10:07:10;628.47;;;375.48;;
65033;SDS011;51601;51.356;12.458;2023-03-20T10:11:35;630.05;;;374.30;;
65033;SDS011;51601;51.356;12.458;2023-03-20T10:16:08;630.53;;;379.73;;
65033;SDS011;51601;51.356;12.458;2023-03-20T10:20:37;633.93;;;380.10;;
65033;SDS011;51601;51.356;12.458;2023-03-20T10:25:02;639.28;;;385.58;;
65033;SDS011;51601;51.356;12.458;2023-03-20T10:29:26;651.28;;;391.48;;
65033;SDS011;51601;51.356;12.458;2023-03-20T10:33:55;648.83;;;390.60;;
65033;SDS011;51601;51.356;12.458;2023-03-20T10:38:26;647.65;;;385.17;;
65033;SDS011;51601;51.356;12.458;2023-03-20T10:42:48;650.60;;;388.77;;
65033;SDS011;51601;51.356;12.458;2023-03-20T10:47:10;657.27;;;389.60;;
65033;SDS011;51601;51.356;12.458;2023-03-20T10:51:37;656.22;;;392.05;;
65033;SDS011;51601;51.356;12.458;2023-03-20T10:55:59;654.33;;;384.33;;
65033;SDS011;51601;51.356;12.458;2023-03-20T11:00:23;660.45;;;392.02;;
65033;SDS011;51601;51.356;12.458;2023-03-20T11:04:43;656.67;;;384.30;;
65033;SDS011;51601;51.356;12.458;2023-03-20T11:09:09;647.53;;;378.25;;
65033;SDS011;51601;51.356;12.458;2023-03-20T11:13:32;606.22;;;354.15;;
65033;SDS011;51601;51.356;12.458;2023-03-20T11:17:55;644.43;;;375.63;;
65033;SDS011;51601;51.356;12.458;2023-03-20T11:22:21;644.08;;;378.33;;
65033;SDS011;51601;51.356;12.458;2023-03-20T11:26:42;643.85;;;376.45;;
65033;SDS011;51601;51.356;12.458;2023-03-20T11:31:03;647.03;;;382.03;;
65033;SDS011;51601;51.356;12.458;2023-03-20T11:35:26;591.08;;;343.15;;
65033;SDS011;51601;51.356;12.458;2023-03-20T11:39:57;635.22;;;373.38;;
65033;SDS011;51601;51.356;12.458;2023-03-20T11:44:21;603.35;;;352.23;;
65033;SDS011;51601;51.356;12.458;2023-03-20T11:48:43;639.57;;;380.17;;
65033;SDS011;51601;51.356;12.458;2023-03-20T11:53:14;639.70;;;386.17;;
65033;SDS011;51601;51.356;12.458;2023-03-20T11:57:40;641.15;;;384.17;;
65033;SDS011;51601;51.356;12.458;2023-03-20T12:02:19;650.33;;;390.10;;
65033;SDS011;51601;51.356;12.458;2023-03-20T12:06:49;643.17;;;378.05;;
65033;SDS011;51601;51.356;12.458;2023-03-20T12:11:17;658.70;;;382.75;;
65033;SDS011;51601;51.356;12.458;2023-03-20T12:15:51;650.40;;;376.60;;
65033;SDS011;51601;51.356;12.458;2023-03-20T12:20:15;654.78;;;379.58;;
65033;SDS011;51601;51.356;12.458;2023-03-20T12:24:42;648.63;;;373.92;;
65033;SDS011;51601;51.356;12.458;2023-03-20T12:29:06;646.55;;;371.75;;
65033;SDS011;51601;51.356;12.458;2023-03-20T12:33:38;643.00;;;367.70;;
65033;SDS011;51601;51.356;12.458;2023-03-20T12:38:02;643.47;;;367.42;;
65033;SDS011;51601;51.356;12.458;2023-03-20T12:42:35;641.60;;;364.15;;
65033;SDS011;51601;51.356;12.458;2023-03-20T12:47:12;640.33;;;366.23;;
65033;SDS011;51601;51.356;12.458;2023-03-20T12:51:38;639.58;;;365.60;;
65033;SDS011;51601;51.356;12.458;2023-03-20T12:56:15;636.28;;;364.63;;
65033;SDS011;51601;51.356;12.458;2023-03-20T13:00:39;631.20;;;364.00;;
65033;SDS011;51601;51.356;12.458;2023-03-20T13:05:08;630.20;;;357.83;;
65033;SDS011;51601;51.356;12.458;2023-03-20T13:09:42;611.88;;;344.80;;
65033;SDS011;51601;51.356;12.458;2023-03-20T13:14:21;629.95;;;360.42;;
65033;SDS011;51601;51.356;12.458;2023-03-20T13:18:52;631.93;;;363.27;;
65033;SDS011;51601;51.356;12.458;2023-03-20T13:23:18;624.85;;;359.77;;
65033;SDS011;51601;51.356;12.458;2023-03-20T13:27:41;626.03;;;358.38;;
65033;SDS011;51601;51.356;12.458;2023-03-20T13:32:09;624.60;;;360.13;;
65033;SDS011;51601;51.356;12.458;2023-03-20T13:36:39;601.60;;;341.48;;
65033;SDS011;51601;51.356;12.458;2023-03-20T13:41:08;617.83;;;347.42;;
65033;SDS011;51601;51.356;12.458;2023-03-20T13:45:28;610.17;;;334.97;;
65033;SDS011;51601;51.356;12.458;2023-03-20T13:49:55;632.75;;;344.30;;
65033;SDS011;51601;51.356;12.458;2023-03-20T13:54:21;620.05;;;328.42;;
65033;SDS011;51601;51.356;12.458;2023-03-20T13:58:57;538.63;;;270.95;;
65033;SDS011;51601;51.356;12.458;2023-03-20T14:03:29;627.03;;;327.47;;
65033;SDS011;51601;51.356;12.458;2023-03-20T14:07:53;635.47;;;332.77;;
65033;SDS011;51601;51.356;12.458;2023-03-20T14:12:13;627.45;;;327.05;;
65033;SDS011;51601;51.356;12.458;2023-03-20T14:16:34;606.47;;;313.13;;
65033;SDS011;51601;51.356;12.458;2023-03-20T14:20:53;670.65;;;336.40;;
65033;SDS011;51601;51.356;12.458;2023-03-20T14:25:16;652.05;;;333.77;;
65033;SDS011;51601;51.356;12.458;2023-03-20T14:29:35;637.20;;;330.87;;
65033;SDS011;51601;51.356;12.458;2023-03-20T14:34:00;626.65;;;328.25;;
65033;SDS011;51601;51.356;12.458;2023-03-20T14:38:29;636.53;;;332.63;;
65033;SDS011;51601;51.356;12.458;2023-03-20T14:42:52;644.40;;;334.98;;
65033;SDS011;51601;51.356;12.458;2023-03-20T14:47:17;647.73;;;334.73;;
65033;SDS011;51601;51.356;12.458;2023-03-20T14:51:43;639.47;;;330.58;;
65033;SDS011;51601;51.356;12.458;2023-03-20T14:56:09;590.25;;;299.08;;
65033;SDS011;51601;51.356;12.458;2023-03-20T15:00:34;532.40;;;265.00;;
65033;SDS011;51601;51.356;12.458;2023-03-20T15:05:01;504.75;;;246.23;;
65033;SDS011;51601;51.356;12.458;2023-03-20T15:09:22;498.02;;;242.82;;
65033;SDS011;51601;51.356;12.458;2023-03-20T15:13:43;503.57;;;246.00;;
65033;SDS011;51601;51.356;12.458;2023-03-20T15:18:03;489.55;;;235.45;;
65033;SDS011;51601;51.356;12.458;2023-03-20T15:23:01;494.63;;;241.82;;
65033;SDS011;51601;51.356;12.458;2023-03-20T15:27:46;502.90;;;248.98;;
65033;SDS011;51601;51.356;12.458;2023-03-20T15:32:09;507.60;;;252.57;;
65033;SDS011;51601;51.356;12.458;2023-03-20T15:36:33;457.90;;;220.10;;
65033;SDS011;51601;51.356;12.458;2023-03-20T15:40:56;486.67;;;240.20;;
65033;SDS011;51601;51.356;12.458;2023-03-20T15:45:20;515.97;;;260.97;;
65033;SDS011;51601;51.356;12.458;2023-03-20T15:49:41;514.28;;;261.20;;
65033;SDS011;51601;51.356;12.458;2023-03-20T15:54:01;545.90;;;285.67;;
65033;SDS011;51601;51.356;12.458;2023-03-20T15:58:23;540.93;;;290.57;;
65033;SDS011;51601;51.356;12.458;2023-03-20T16:02:44;550.35;;;300.73;;
65033;SDS011;51601;51.356;12.458;2023-03-20T16:07:17;539.58;;;297.33;;
65033;SDS011;51601;51.356;12.458;2023-03-20T16:11:38;536.95;;;300.38;;
65033;SDS011;51601;51.356;12.458;2023-03-20T16:15:57;543.97;;;308.47;;
65033;SDS011;51601;51.356;12.458;2023-03-20T16:20:18;549.55;;;311.58;;
65033;SDS011;51601;51.356;12.458;2023-03-20T16:24:37;545.67;;;311.38;;
65033;SDS011;51601;51.356;12.458;2023-03-20T16:28:59;538.33;;;306.50;;
65033;SDS011;51601;51.356;12.458;2023-03-20T16:33:19;551.97;;;318.73;;
65033;SDS011;51601;51.356;12.458;2023-03-20T16:37:40;546.28;;;314.85;;
65033;SDS011;51601;51.356;12.458;2023-03-20T16:42:08;549.03;;;318.43;;
65033;SDS011;51601;51.356;12.458;2023-03-20T16:46:29;552.53;;;322.13;;
65033;SDS011;51601;51.356;12.458;2023-03-20T16:50:54;552.85;;;321.35;;
65033;SDS011;51601;51.356;12.458;2023-03-20T16:55:22;554.38;;;325.48;;
65033;SDS011;51601;51.356;12.458;2023-03-20T16:59:49;552.07;;;324.83;;
65033;SDS011;51601;51.356;12.458;2023-03-20T17:04:20;555.13;;;328.73;;
65033;SDS011;51601;51.356;12.458;2023-03-20T17:08:47;553.45;;;328.23;;
65033;SDS011;51601;51.356;12.458;2023-03-20T17:13:13;556.10;;;333.43;;
65033;SDS011;51601;51.356;12.458;2023-03-20T17:17:37;556.40;;;333.85;;
65033;SDS011;51601;51.356;12.458;2023-03-20T17:22:07;565.90;;;340.95;;
65033;SDS011;51601;51.356;12.458;2023-03-20T17:26:34;614.93;;;386.97;;
65033;SDS011;51601;51.356;12.458;2023-03-20T17:30:59;627.05;;;399.70;;
65033;SDS011;51601;51.356;12.458;2023-03-20T17:35:26;631.17;;;409.63;;
65033;SDS011;51601;51.356;12.458;2023-03-20T17:39:51;642.85;;;424.85;;
65033;SDS011;51601;51.356;12.458;2023-03-20T17:44:16;661.10;;;446.00;;
65033;SDS011;51601;51.356;12.458;2023-03-20T17:48:40;654.15;;;449.30;;
65033;SDS011;51601;51.356;12.458;2023-03-20T17:53:04;652.65;;;463.27;;
65033;SDS011;51601;51.356;12.458;2023-03-20T17:57:30;659.63;;;478.67;;
65033;SDS011;51601;51.356;12.458;2023-03-20T18:01:55;663.15;;;486.27;;
65033;SDS011;51601;51.356;12.458;2023-03-20T18:06:20;656.92;;;488.45;;
65033;SDS011;51601;51.356;12.458;2023-03-20T18:10:46;668.40;;;509.67;;
65033;SDS011;51601;51.356;12.458;2023-03-20T18:15:12;666.65;;;489.70;;
65033;SDS011;51601;51.356;12.458;2023-03-20T18:19:36;650.38;;;477.90;;
65033;SDS011;51601;51.356;12.458;2023-03-20T18:24:00;658.20;;;499.27;;
65033;SDS011;51601;51.356;12.458;2023-03-20T18:28:24;642.77;;;473.40;;
65033;SDS011;51601;51.356;12.458;2023-03-20T18:32:49;659.20;;;505.95;;
65033;SDS011;51601;51.356;12.458;2023-03-20T18:37:14;672.35;;;530.40;;
65033;SDS011;51601;51.356;12.458;2023-03-20T18:41:38;654.67;;;490.37;;
65033;SDS011;51601;51.356;12.458;2023-03-20T18:46:01;664.15;;;506.75;;
65033;SDS011;51601;51.356;12.458;2023-03-20T18:50:28;651.20;;;496.40;;
65033;SDS011;51601;51.356;12.458;2023-03-20T18:54:58;649.17;;;494.53;;
65033;SDS011;51601;51.356;12.458;2023-03-20T18:59:22;653.55;;;502.73;;
65033;SDS011;51601;51.356;12.458;2023-03-20T19:03:46;653.88;;;494.92;;
65033;SDS011;51601;51.356;12.458;2023-03-20T19:08:14;649.97;;;496.25;;
65033;SDS011;51601;51.356;12.458;2023-03-20T19:12:38;655.37;;;499.63;;
65033;SDS011;51601;51.356;12.458;2023-03-20T19:17:02;649.30;;;494.48;;
65033;SDS011;51601;51.356;12.458;2023-03-20T19:21:26;647.85;;;498.42;;
65033;SDS011;51601;51.356;12.458;2023-03-20T19:25:53;655.50;;;497.03;;
65033;SDS011;51601;51.356;12.458;2023-03-20T19:30:23;649.90;;;490.98;;
65033;SDS011;51601;51.356;12.458;2023-03-20T19:34:49;655.63;;;497.85;;
65033;SDS011;51601;51.356;12.458;2023-03-20T19:39:33;647.37;;;496.97;;
65033;SDS011;51601;51.356;12.458;2023-03-20T19:43:58;656.38;;;507.83;;
65033;SDS011;51601;51.356;12.458;2023-03-20T19:48:23;650.65;;;495.17;;
65033;SDS011;51601;51.356;12.458;2023-03-20T19:52:48;656.20;;;504.10;;
65033;SDS011;51601;51.356;12.458;2023-03-20T19:57:12;650.10;;;505.60;;
65033;SDS011;51601;51.356;12.458;2023-03-20T20:01:37;657.75;;;508.38;;
65033;SDS011;51601;51.356;12.458;2023-03-20T20:06:01;655.50;;;514.63;;
65033;SDS011;51601;51.356;12.458;2023-03-20T20:10:26;654.97;;;509.80;;
65033;SDS011;51601;51.356;12.458;2023-03-20T20:14:53;661.20;;;516.40;;
65033;SDS011;51601;51.356;12.458;2023-03-20T20:19:13;658.45;;;510.88;;
65033;SDS011;51601;51.356;12.458;2023-03-20T20:23:38;652.20;;;504.40;;
65033;SDS011;51601;51.356;12.458;2023-03-20T20:28:03;659.72;;;517.90;;
65033;SDS011;51601;51.356;12.458;2023-03-20T20:32:28;661.38;;;510.67;;
65033;SDS011;51601;51.356;12.458;2023-03-20T20:36:53;662.83;;;520.42;;
65033;SDS011;51601;51.356;12.458;2023-03-20T20:41:37;666.73;;;522.83;;
65033;SDS011;51601;51.356;12.458;2023-03-20T20:46:01;668.63;;;522.42;;
65033;SDS011;51601;51.356;12.458;2023-03-20T20:50:26;671.20;;;526.53;;
65033;SDS011;51601;51.356;12.458;2023-03-20T20:54:53;666.30;;;521.03;;
65033;SDS011;51601;51.356;12.458;2023-03-20T20:59:13;670.38;;;525.60;;
65033;SDS011;51601;51.356;12.458;2023-03-20T21:03:37;675.40;;;524.33;;
65033;SDS011;51601;51.356;12.458;2023-03-20T21:08:01;666.73;;;519.70;;
65033;SDS011;51601;51.356;12.458;2023-03-20T21:12:27;672.88;;;526.17;;
65033;SDS011;51601;51.356;12.458;2023-03-20T21:17:01;670.10;;;527.25;;
65033;SDS011;51601;51.356;12.458;2023-03-20T21:21:27;678.80;;;532.47;;
65033;SDS011;51601;51.356;12.458;2023-03-20T21:25:51;669.47;;;527.47;;
65033;SDS011;51601;51.356;12.458;2023-03-20T21:30:17;673.22;;;519.88;;
65033;SDS011;51601;51.356;12.458;2023-03-20T21:34:42;671.42;;;523.30;;
65033;SDS011;51601;51.356;12.458;2023-03-20T21:39:06;667.87;;;519.70;;
65033;SDS011;51601;51.356;12.458;2023-03-20T21:43:31;662.33;;;511.55;;
65033;SDS011;51601;51.356;12.458;2023-03-20T21:47:56;662.42;;;505.17;;
65033;SDS011;51601;51.356;12.458;2023-03-20T21:52:40;656.53;;;504.17;;
65033;SDS011;51601;51.356;12.458;2023-03-20T21:57:24;644.47;;;476.23;;
65033;SDS011;51601;51.356;12.458;2023-03-20T22:02:10;638.20;;;474.75;;
65033;SDS011;51601;51.356;12.458;2023-03-20T22:06:48;635.97;;;472.00;;
65033;SDS011;51601;51.356;12.458;2023-03-20T22:11:32;635.93;;;477.87;;
65033;SDS011;51601;51.356;12.458;2023-03-20T22:16:16;636.65;;;465.58;;
65033;SDS011;51601;51.356;12.458;2023-03-20T22:21:00;642.22;;;486.95;;
65033;SDS011;51601;51.356;12.458;2023-03-20T22:25:53;641.77;;;484.60;;
65033;SDS011;51601;51.356;12.458;2023-03-20T22:30:38;642.35;;;485.73;;
65033;SDS011;51601;51.356;12.458;2023-03-20T22:35:22;645.85;;;489.00;;
65033;SDS011;51601;51.356;12.458;2023-03-20T22:40:06;650.20;;;502.97;;
65033;SDS011;51601;51.356;12.458;2023-03-20T22:44:52;646.42;;;489.45;;
65033;SDS011;51601;51.356;12.458;2023-03-20T22:49:26;646.88;;;487.33;;
65033;SDS011;51601;51.356;12.458;2023-03-20T22:53:50;654.50;;;500.67;;
65033;SDS011;51601;51.356;12.458;2023-03-20T22:58:14;659.20;;;503.67;;
65033;SDS011;51601;51.356;12.458;2023-03-20T23:02:41;650.15;;;497.13;;
65033;SDS011;51601;51.356;12.458;2023-03-20T23:07:05;649.50;;;506.45;;
65033;SDS011;51601;51.356;12.458;2023-03-20T23:11:29;646.47;;;505.53;;
65033;SDS011;51601;51.356;12.458;2023-03-20T23:15:52;647.28;;;501.30;;
65033;SDS011;51601;51.356;12.458;2023-03-20T23:20:18;655.50;;;516.95;;
65033;SDS011;51601;51.356;12.458;2023-03-20T23:24:42;648.93;;;502.77;;
65033;SDS011;51601;51.356;12.458;2023-03-20T23:29:06;658.58;;;521.08;;
65033;SDS011;51601;51.356;12.458;2023-03-20T23:33:30;660.03;;;515.88;;
65033;SDS011;51601;51.356;12.458;2023-03-20T23:37:56;653.53;;;507.35;;
65033;SDS011;51601;51.356;12.458;2023-03-20T23:42:20;657.47;;;514.37;;
65033;SDS011;51601;51.356;12.458;2023-03-20T23:46:52;657.90;;;514.10;;
65033;SDS011;51601;51.356;12.458;2023-03-20T23:51:16;650.85;;;519.30;;
65033;SDS011;51601;51.356;12.458;2023-03-20T23:55:42;651.83;;;521.97;;
